Latest Weather Observations for Croker Island Airport

IDD60801

Issued at 10:05 pm CST Thursday 30 October 2014 (issued every 30 minutes, with the page automatically refreshed every 10 minutes)

About weather observations | Map of weather stations | Latest weather observations for NT | Other Formats
Station Details ID: 014308 Name: CROKER ISLAND AIRPORT Lat: -11.16 Lon: 132.48 Height: 9.2 m
Data from the previous 72 hours. | See also: Recent months for locations in Northern Territory
Date/Time
CST
Temp
°C
App
Temp
°C
Dew
Point
Rel
Hum
%
Delta-T
°C
Wind Press
QNH
hPa
Press
MSL
hPa
Rain
since 9 am
mm
Dir
 
Spd
km/h
Gust
km/h
Spd
kts
Gust
kts
30/10:00pm 26.1 28.4 20.7 72 3.6 N 9 13 5 7 1009.6 1009.5 -
30/09:30pm 26.1 28.4 20.7 72 3.6 N 9 17 5 9 1009.2 1009.1 -
30/09:00pm 25.9 28.2 20.7 73 3.4 N 9 15 5 8 1009.0 1008.9 -
30/08:30pm 25.7 28.4 20.7 74 3.3 N 7 11 4 6 1009.1 1009.0 -
30/08:00pm 25.8 28.6 20.4 72 3.5 N 6 7 3 4 1009.0 1008.9 -
30/07:30pm 26.3 29.1 20.4 70 3.9 N 6 7 3 4 1009.1 1009.0 -
30/07:00pm 26.8 29.9 20.2 67 4.3 N 4 7 2 4 1009.0 1008.9 -
30/06:30pm 27.7 30.4 20.3 64 4.9 N 6 9 3 5 1008.8 1008.7 -
30/06:00pm 28.7 31.0 20.7 62 5.3 NNW 9 15 5 8 1008.8 1008.7 -
30/05:30pm 29.1 30.5 21.1 62 5.3 NNW 15 20 8 11 1008.7 1008.6 -
30/05:00pm 30.3 32.6 21.4 59 6.0 NNW 11 17 6 9 1008.6 1008.5 -
30/04:30pm 30.5 32.4 21.3 58 6.2 NNW 13 19 7 10 1008.5 1008.4 -
30/04:00pm 30.6 32.9 21.4 58 6.2 NNW 11 19 6 10 1008.6 1008.5 -
30/03:30pm 31.0 33.2 21.8 58 6.2 NNW 13 19 7 10 1008.6 1008.5 -
30/03:00pm 30.4 32.4 21.5 59 6.0 NW 13 20 7 11 1008.8 1008.7 -
30/02:30pm 31.2 32.9 21.7 57 6.4 NW 15 20 8 11 1009.0 1008.9 -
30/02:00pm 31.1 32.5 21.0 55 6.8 NW 15 20 8 11 1009.3 1009.2 -
30/01:30pm 30.9 32.7 21.1 56 6.6 NW 13 20 7 11 1009.8 1009.7 -
30/01:00pm 30.9 32.5 21.4 57 6.4 NNW 15 22 8 12 1010.3 1010.2 -
30/12:30pm 30.8 32.2 21.0 56 6.6 NNW 15 20 8 11 1010.8 1010.7 -
30/12:00pm 31.1 32.4 21.6 57 6.4 NNW 17 26 9 14 1011.0 1010.9 -
30/11:30am 30.5 31.6 21.3 58 6.2 NNW 17 22 9 12 1011.3 1011.2 -
30/11:00am 30.5 32.2 21.6 59 6.0 NNW 15 20 8 11 1011.6 1011.5 -
30/10:30am 30.6 32.4 21.9 59 5.9 NNW 15 20 8 11 1012.0 1011.9 -
30/10:00am 29.0 30.8 21.2 62 5.2 NNW 13 19 7 10 1012.2 1012.1 -
30/09:30am 29.7 32.1 21.6 61 5.4 N 11 17 6 9 1012.4 1012.3 -
30/09:00am 28.9 31.2 21.4 64 5.0 N 11 17 6 9 1012.3 1012.2 -
30/08:30am 28.4 30.6 21.2 65 4.8 N 11 15 6 8 1012.2 1012.1 -
30/08:00am 27.6 31.6 22.8 75 3.3 NNE 6 7 3 4 1011.9 1011.8 -
30/07:30am 26.1 31.7 24.9 93 0.8 NE 4 6 2 3 1011.6 1011.5 -
30/07:00am 24.1 29.2 24.1 100 0.0 NE 4 4 2 2 1011.5 1011.4 -
30/06:30am 22.2 26.3 22.2 100 0.0 NE 4 6 2 3 1011.3 1011.2 -
30/06:00am 22.1 25.7 22.1 100 0.0 ENE 6 6 3 3 1011.0 1010.9 -
30/05:30am 22.4 26.2 22.4 100 0.0 NE 6 7 3 4 1010.6 1010.5 -
30/05:00am 22.3 26.1 21.6 96 0.5 ENE 4 6 2 3 1010.1 1010.0 -
30/04:30am 22.4 26.1 21.4 94 0.7 ENE 4 6 2 3 1010.0 1009.9 -
30/04:00am 22.7 26.0 21.5 93 0.8 NE 6 6 3 3 1010.0 1009.9 -
30/03:30am 23.0 26.4 21.6 92 0.9 NE 6 6 3 3 1009.9 1009.8 -
30/03:00am 23.1 26.5 21.7 92 0.9 ENE 6 6 3 3 1010.0 1009.9 -
30/02:30am 22.4 25.5 20.3 88 1.4 ENE 4 4 2 2 1010.2 1010.1 -
30/02:00am 22.4 25.5 19.6 84 1.8 E 2 4 1 2 1010.5 1010.4 -
30/01:30am 23.0 26.0 20.0 83 1.9 ENE 4 6 2 3 1010.6 1010.5 -
30/01:00am 23.3 25.7 19.7 80 2.3 ENE 6 6 3 3 1010.6 1010.5 -
30/12:30am 23.4 25.5 19.3 78 2.6 ENE 7 7 4 4 1011.0 1010.9 -
30/12:00am 23.8 26.0 19.1 75 3.0 E 6 7 3 4 1011.2 1011.1 -
 
Date/Time
CST
Temp
°C
App
Temp
°C
Dew
Point
Rel
Hum
%
Delta-T
°C
Wind Press
QNH
hPa
Press
MSL
hPa
Rain
since 9 am
mm
Dir
 
Spd
km/h
Gust
km/h
Spd
kts
Gust
kts
29/11:30pm 24.7 26.9 19.3 72 3.5 ENE 6 9 3 5 1011.3 1011.2 -
29/11:00pm 26.3 27.8 20.6 71 3.7 N 13 20 7 11 1011.4 1011.3 -
29/10:30pm 26.5 27.1 20.3 68 4.1 N 17 22 9 12 1011.3 1011.2 -
29/10:00pm 26.6 27.5 20.0 67 4.3 N 15 24 8 13 1011.1 1011.0 -
29/09:30pm 26.6 27.2 19.5 65 4.6 N 15 24 8 13 1010.7 1010.6 -
29/09:00pm 26.3 27.0 19.7 67 4.3 NNE 15 20 8 11 1010.5 1010.4 -
29/08:30pm 26.3 26.7 18.9 63 4.7 NNE 15 22 8 12 1010.4 1010.3 -
29/08:00pm 26.4 26.9 19.3 65 4.6 NNE 15 19 8 10 1010.4 1010.3 -
29/07:30pm 26.5 27.9 20.3 68 4.1 NNE 13 17 7 9 1010.3 1010.2 -
29/07:00pm 26.8 28.1 20.2 67 4.3 NNE 13 19 7 10 1010.2 1010.1 -
29/06:30pm 27.3 28.7 20.4 66 4.5 NNE 13 19 7 10 1010.0 1009.9 -
29/06:00pm 28.6 30.3 20.1 60 5.6 NE 11 15 6 8 1009.8 1009.7 -
29/05:30pm 29.5 31.0 19.8 56 6.4 NE 11 19 6 10 1009.7 1009.6 -
29/05:00pm 30.3 30.7 19.0 50 7.3 NE 15 22 8 12 1009.6 1009.5 -
29/04:30pm 31.2 31.5 17.9 45 8.5 NE 13 20 7 11 1009.6 1009.5 -
29/04:00pm 32.2 32.7 18.4 44 8.9 NNE 13 19 7 10 1009.6 1009.5 -
29/03:30pm 32.5 32.8 17.9 41 9.4 NE 13 20 7 11 1009.5 1009.4 -
29/03:00pm 32.6 31.2 15.6 36 10.6 NE 17 26 9 14 1009.6 1009.5 -
29/02:30pm 33.2 33.3 17.4 39 10.1 ENE 13 20 7 11 1009.8 1009.7 -
29/02:00pm 32.9 31.2 13.5 30 11.7 E 15 26 8 14 1010.2 1010.1 -
29/01:30pm 32.6 31.8 16.0 36 10.4 E 15 26 8 14 1010.5 1010.4 -
29/01:00pm 32.7 32.6 16.9 38 10.0 E 13 24 7 13 1011.0 1010.9 -
29/12:30pm 32.3 32.4 17.4 41 9.5 E 13 28 7 15 1011.6 1011.5 -
29/12:00pm 32.3 31.8 17.0 40 9.7 E 15 28 8 15 1012.1 1012.0 -
29/11:30am 32.0 31.1 15.9 38 10.1 E 15 28 8 15 1012.4 1012.3 -
29/11:00am 31.6 31.9 17.9 44 8.8 E 13 26 7 14 1012.6 1012.5 -
29/10:30am 31.2 32.6 21.1 55 6.8 NE 15 20 8 11 1012.7 1012.6 -
29/10:00am 31.1 31.7 19.4 49 7.7 ENE 15 28 8 15 1012.9 1012.8 -
29/09:30am 30.7 32.8 20.9 56 6.5 E 11 22 6 12 1013.0 1012.9 -
29/09:00am 29.1 30.3 20.0 58 6.0 E 13 26 7 14 1013.1 1013.0 -
29/08:30am 28.3 30.3 20.8 63 5.0 NE 11 17 6 9 1012.8 1012.7 -
29/08:00am 27.7 30.8 21.5 69 4.1 NE 7 11 4 6 1012.7 1012.6 -
29/07:30am 26.4 30.4 23.1 82 2.2 NE 7 11 4 6 1012.4 1012.3 -
29/07:00am 24.2 29.4 24.2 100 0.0 NE 4 6 2 3 1012.1 1012.0 -
29/06:30am 21.8 25.4 21.3 97 0.3 ENE 4 6 2 3 1011.9 1011.8 -
29/06:00am 21.8 24.7 20.6 93 0.8 E 6 6 3 3 1011.7 1011.6 -
29/05:30am 22.2 25.5 20.8 92 0.9 ENE 4 6 2 3 1011.5 1011.4 -
29/05:00am 22.0 24.9 19.9 88 1.3 ENE 4 6 2 3 1011.3 1011.2 -
29/04:30am 22.3 25.5 19.7 85 1.7 ENE 2 2 1 1 1011.1 1011.0 -
29/04:00am 23.5 26.8 20.8 85 1.8 ENE 4 6 2 3 1011.0 1010.9 -
29/03:30am 23.7 26.8 21.0 85 1.8 NE 6 7 3 4 1010.9 1010.8 -
29/03:00am 24.1 27.2 21.4 85 1.8 NE 7 9 4 5 1011.0 1010.9 -
29/02:30am 23.9 27.0 21.0 84 1.9 NE 6 7 3 4 1011.2 1011.1 -
29/02:00am 23.7 26.7 20.8 84 1.9 ENE 6 7 3 4 1011.4 1011.3 -
29/01:30am 23.5 26.7 21.2 87 1.5 NE 6 7 3 4 1011.4 1011.3 -
29/01:00am 22.5 25.1 20.0 86 1.6 ENE 6 6 3 3 1011.5 1011.4 -
29/12:30am 22.0 24.2 18.4 80 2.3 ENE 4 6 2 3 1011.6 1011.5 -
29/12:00am 22.5 24.3 18.3 77 2.6 ENE 6 6 3 3 1011.4 1011.3 -
 
Date/Time
CST
Temp
°C
App
Temp
°C
Dew
Point
Rel
Hum
%
Delta-T
°C
Wind Press
QNH
hPa
Press
MSL
hPa
Rain
since 9 am
mm
Dir
 
Spd
km/h
Gust
km/h
Spd
kts
Gust
kts
28/11:30pm 23.4 25.7 18.5 74 3.1 ENE 4 4 2 2 1011.2 1011.1 -
28/11:00pm 24.4 26.6 19.5 74 3.1 ENE 7 9 4 5 1011.0 1010.9 -
28/10:30pm 25.0 27.2 20.3 75 3.1 NE 9 11 5 6 1010.8 1010.7 -
28/10:00pm 25.6 28.5 21.1 76 3.0 NE 7 13 4 7 1010.7 1010.6 -
28/09:30pm 25.8 28.2 20.8 74 3.3 NNE 9 13 5 7 1010.5 1010.4 -
28/09:00pm 25.8 28.6 20.8 74 3.3 NNE 7 11 4 6 1010.3 1010.2 -
28/08:30pm 25.9 28.7 20.9 74 3.3 NNE 7 13 4 7 1009.9 1009.8 -
28/08:00pm 26.2 28.3 21.0 73 3.4 NNE 11 15 6 8 1009.8 1009.7 -
28/07:30pm 26.3 28.6 20.6 71 3.7 NNE 9 13 5 7 1009.5 1009.4 -
28/07:00pm 26.7 28.5 20.3 68 4.2 NE 11 17 6 9 1009.3 1009.2 -
28/06:30pm 27.4 28.5 18.9 59 5.5 NE 11 20 6 11 1008.9 1008.8 -
28/06:00pm 28.3 29.3 19.5 59 5.7 NE 13 22 7 12 1008.8 1008.7 -
28/05:30pm 29.6 30.7 19.6 55 6.5 NE 13 20 7 11 1008.8 1008.7 -
28/05:00pm 30.2 31.3 19.6 53 6.9 ENE 13 20 7 11 1008.7 1008.6 -
28/04:30pm 31.1 31.9 19.1 48 7.8 ENE 13 22 7 12 1008.6 1008.5 -
28/04:00pm 31.5 32.5 19.5 49 7.9 NE 13 24 7 13 1008.6 1008.5 -
28/03:30pm 31.7 32.6 19.3 47 8.1 ENE 13 20 7 11 1008.8 1008.7 -
28/03:00pm 32.5 32.1 19.0 44 8.8 E 19 28 10 15 1009.1 1009.0 -
28/02:30pm 32.4 31.7 18.2 42 9.2 E 19 28 10 15 1009.3 1009.2 -
28/02:00pm 32.2 31.1 17.3 41 9.5 E 19 24 10 13 1009.7 1009.6 -
28/01:30pm 31.7 31.4 18.3 45 8.7 ENE 17 30 9 16 1010.2 1010.1 -
28/01:00pm 31.8 31.6 18.4 45 8.7 ENE 17 28 9 15 1010.8 1010.7 -
28/12:30pm 31.8 32.8 18.7 45 8.5 ENE 11 24 6 13 1011.2 1011.1 -
28/12:00pm 31.6 32.0 18.2 44 8.6 E 13 28 7 15 1011.3 1011.2 -
28/11:30am 31.9 32.6 18.8 45 8.5 E 13 24 7 13 1011.7 1011.6 -
28/11:00am 31.7 33.1 18.7 46 8.4 ENE 9 22 5 12 1012.0 1011.9 -
28/10:30am 31.4 32.5 18.0 44 8.6 E 9 15 5 8 1012.2 1012.1 -
28/10:00am 30.8 31.9 18.8 48 7.8 ENE 11 20 6 11 1012.4 1012.3 -
28/09:30am 30.3 31.4 19.6 52 7.0 ENE 13 20 7 11 1012.7 1012.6 -
28/09:00am 29.8 32.0 20.4 57 6.2 E 9 15 5 8 1012.7 1012.6 -
28/08:30am 28.8 31.0 20.3 60 5.6 ENE 9 15 5 8 1012.8 1012.7 -
28/08:00am 27.8 30.7 21.1 67 4.4 E 7 11 4 6 1012.6 1012.5 -
28/07:30am 26.0 30.8 24.2 90 1.2 E 6 7 3 4 1012.5 1012.4 -
28/07:00am 23.8 28.8 23.8 100 0.0 E 4 6 2 3 1012.2 1012.1 -
28/06:30am 22.1 25.7 22.1 100 0.0 E 6 7 3 4 1012.0 1011.9 -
28/06:00am 21.9 25.4 21.9 100 0.0 E 6 7 3 4 1011.7 1011.6 -
28/05:30am 22.0 25.2 21.7 98 0.2 E 7 7 4 4 1011.5 1011.4 -
28/05:00am 22.1 25.1 21.3 95 0.5 ESE 7 7 4 4 1011.2 1011.1 -
28/04:30am 22.2 25.2 21.2 94 0.7 E 7 9 4 5 1011.1 1011.0 -
28/04:00am 22.0 24.9 21.0 94 0.7 ESE 7 7 4 4 1010.9 1010.8 -
28/03:30am 22.2 25.5 21.4 95 0.5 E 6 6 3 3 1011.0 1010.9 -
28/03:00am 22.6 26.4 21.6 94 0.7 E 4 6 2 3 1011.2 1011.1 -
28/02:30am 22.3 25.7 20.9 92 0.9 E 4 4 2 2 1011.3 1011.2 -
28/02:00am 22.6 25.9 20.7 89 1.2 E 4 6 2 3 1011.3 1011.2 -
28/01:30am 22.9 25.8 20.6 87 1.5 E 6 6 3 3 1011.4 1011.3 -
28/01:00am 23.1 25.9 20.4 85 1.8 E 6 7 3 4 1011.5 1011.4 -
28/12:30am 23.1 25.6 19.9 82 2.1 E 6 6 3 3 1011.6 1011.5 -
28/12:00am 23.3 25.6 19.5 79 2.4 ENE 6 7 3 4 1011.7 1011.6 -
 
Date/Time
CST
Temp
°C
App
Temp
°C
Dew
Point
Rel
Hum
%
Delta-T
°C
Wind Press
QNH
hPa
Press
MSL
hPa
Rain
since 9 am
mm
Dir
 
Spd
km/h
Gust
km/h
Spd
kts
Gust
kts
27/11:30pm 23.8 26.1 19.5 77 2.8 ENE 6 7 3 4 1011.8 1011.7 -
27/11:00pm 24.9 27.7 20.4 76 2.9 ENE 6 7 3 4 1011.8 1011.7 -
27/10:30pm 25.9 28.7 21.6 77 2.9 NNE 9 13 5 7 1011.6 1011.5 -

Other Formats:

Comma delimited format used in spreadsheet applications
http://www.bom.gov.au/fwo/IDD60801/IDD60801.94108.axf

JavaScript Object Notation format (JSON) in row-major order
http://www.bom.gov.au/fwo/IDD60801/IDD60801.94108.json